createdAt,value
2022-10-15T00:00:03.248Z,997.70
2022-10-15T00:01:03.062Z,997.66
2022-10-15T00:02:02.679Z,997.70
2022-10-15T00:03:02.274Z,997.61
2022-10-15T00:05:02.660Z,997.66
2022-10-15T00:06:02.278Z,997.55
2022-10-15T00:07:02.767Z,997.60
2022-10-15T00:08:02.310Z,997.52
2022-10-15T00:09:02.784Z,997.54
2022-10-15T00:10:02.420Z,997.56
2022-10-15T00:11:02.716Z,997.54
2022-10-15T00:12:02.610Z,997.52
2022-10-15T00:14:02.675Z,997.49
2022-10-15T00:15:02.924Z,997.57
2022-10-15T00:16:02.964Z,997.51
2022-10-15T00:17:03.413Z,997.47
2022-10-15T00:18:02.945Z,997.49
2022-10-15T00:19:02.796Z,997.47
2022-10-15T00:20:03.248Z,997.48
2022-10-15T00:21:03.266Z,997.46
2022-10-15T00:22:02.772Z,997.50
2022-10-15T00:23:02.183Z,997.45
2022-10-15T00:24:02.642Z,997.41
2022-10-15T00:25:02.376Z,997.40
2022-10-15T00:26:02.332Z,997.43
2022-10-15T00:27:02.832Z,997.40
2022-10-15T00:28:03.340Z,997.39
2022-10-15T00:29:03.190Z,997.39
2022-10-15T00:30:03.079Z,997.37
2022-10-15T00:32:02.622Z,997.38
2022-10-15T00:33:03.179Z,997.37
2022-10-15T00:34:02.674Z,997.34
2022-10-15T00:35:02.570Z,997.37
2022-10-15T00:36:02.533Z,997.36
2022-10-15T00:37:03.587Z,997.39
2022-10-15T00:38:03.241Z,997.37
2022-10-15T00:39:03.135Z,997.39
2022-10-15T00:41:03.568Z,997.38
2022-10-15T00:42:03.182Z,997.37
2022-10-15T00:43:03.068Z,997.38
2022-10-15T00:44:03.318Z,997.30
2022-10-15T00:45:03.216Z,997.28
2022-10-15T00:46:03.096Z,997.31
2022-10-15T00:47:02.743Z,997.29
2022-10-15T00:48:02.693Z,997.27
2022-10-15T00:50:03.110Z,997.31
2022-10-15T00:51:02.987Z,997.31
2022-10-15T00:52:02.849Z,997.28
2022-10-15T00:53:02.729Z,997.33
2022-10-15T00:54:03.301Z,997.29
2022-10-15T00:55:02.932Z,997.30
2022-10-15T00:56:02.805Z,997.32
2022-10-15T00:57:02.418Z,997.33
2022-10-15T00:58:02.263Z,997.32
2022-10-15T00:59:02.861Z,997.23
2022-10-15T01:00:02.481Z,997.26
2022-10-15T01:01:02.408Z,997.26
2022-10-15T01:02:02.906Z,997.20
2022-10-15T01:03:02.893Z,997.24
2022-10-15T01:04:03.003Z,997.19
2022-10-15T01:05:03.385Z,997.22
2022-10-15T01:06:03.008Z,997.30
2022-10-15T01:07:02.627Z,997.24
2022-10-15T01:08:02.500Z,997.27
2022-10-15T01:09:02.365Z,997.25
2022-10-15T01:10:02.930Z,997.23
2022-10-15T01:11:02.370Z,997.26
2022-10-15T01:12:02.911Z,997.29
2022-10-15T01:13:02.784Z,997.25
2022-10-15T01:14:03.116Z,997.28
2022-10-15T01:15:02.843Z,997.29
2022-10-15T01:16:02.773Z,997.38
2022-10-15T01:17:03.351Z,997.33
2022-10-15T01:18:03.204Z,997.31
2022-10-15T01:19:03.530Z,997.25
2022-10-15T01:20:03.225Z,997.25
2022-10-15T01:21:03.649Z,997.25
2022-10-15T01:22:02.900Z,997.22
2022-10-15T01:23:02.671Z,997.24
2022-10-15T01:24:03.202Z,997.16
2022-10-15T01:25:03.047Z,997.11
2022-10-15T01:26:02.846Z,997.18
2022-10-15T01:27:03.168Z,997.20
2022-10-15T01:28:03.029Z,997.16
2022-10-15T01:29:03.549Z,997.18
2022-10-15T01:30:03.716Z,997.24
2022-10-15T01:31:03.302Z,997.15
2022-10-15T01:32:03.612Z,997.21
2022-10-15T01:33:03.397Z,997.21
2022-10-15T01:34:03.509Z,997.18
2022-10-15T01:35:03.361Z,997.19
2022-10-15T01:36:06.342Z,997.14
2022-10-15T01:37:03.588Z,997.20
2022-10-15T01:38:03.452Z,997.13
2022-10-15T01:39:03.822Z,997.22
2022-10-15T01:40:03.855Z,997.24
2022-10-15T01:41:03.709Z,997.26
2022-10-15T01:42:03.186Z,997.27
2022-10-15T01:43:03.032Z,997.26
2022-10-15T01:44:03.459Z,997.20
2022-10-15T01:45:03.257Z,997.28
2022-10-15T01:46:03.113Z,997.27
2022-10-15T01:47:03.547Z,997.27
2022-10-15T01:48:03.369Z,997.27
2022-10-15T01:49:03.867Z,997.36
2022-10-15T01:50:03.490Z,997.35
2022-10-15T01:51:03.880Z,997.40
2022-10-15T01:52:03.215Z,997.39
2022-10-15T01:53:03.021Z,997.38
2022-10-15T01:54:02.813Z,997.38
2022-10-15T01:55:03.297Z,997.38
2022-10-15T01:56:03.071Z,997.36
2022-10-15T01:57:03.530Z,997.40
2022-10-15T01:58:03.295Z,997.38
2022-10-15T01:59:03.765Z,997.40
2022-10-15T02:00:03.616Z,997.39
2022-10-15T02:01:03.547Z,997.35
2022-10-15T02:02:03.099Z,997.39
2022-10-15T02:03:02.906Z,997.23
2022-10-15T02:04:02.695Z,997.25
2022-10-15T02:05:03.188Z,997.30
2022-10-15T02:06:02.961Z,997.25
2022-10-15T02:07:03.526Z,997.17
2022-10-15T02:08:03.326Z,997.16
2022-10-15T02:09:03.174Z,997.11
2022-10-15T02:10:03.640Z,997.11
2022-10-15T02:11:03.102Z,997.14
2022-10-15T02:12:03.596Z,997.13
2022-10-15T02:13:03.251Z,997.14
2022-10-15T02:14:03.619Z,997.08
2022-10-15T02:15:03.393Z,997.09
2022-10-15T02:16:03.141Z,997.09
2022-10-15T02:17:03.593Z,997.06
2022-10-15T02:18:03.478Z,997.04
2022-10-15T02:19:03.294Z,997.06
2022-10-15T02:20:03.426Z,997.06
2022-10-15T02:21:03.226Z,997.05
2022-10-15T02:22:03.723Z,997.10
2022-10-15T02:23:03.440Z,997.04
2022-10-15T02:24:03.338Z,997.06
2022-10-15T02:25:03.848Z,997.08
2022-10-15T02:26:03.436Z,997.07
2022-10-15T02:27:03.046Z,997.06
2022-10-15T02:28:02.569Z,997.08
2022-10-15T02:29:03.313Z,997.06
2022-10-15T02:30:02.889Z,997.07
2022-10-15T02:31:02.717Z,997.06
2022-10-15T02:32:03.220Z,997.10
2022-10-15T02:33:02.983Z,997.18
2022-10-15T02:34:02.834Z,997.23
2022-10-15T02:35:03.371Z,997.21
2022-10-15T02:36:02.964Z,997.21
2022-10-15T02:37:03.444Z,997.21
2022-10-15T02:38:03.340Z,997.24
2022-10-15T02:39:03.175Z,997.31
2022-10-15T02:40:03.079Z,997.29
2022-10-15T02:41:03.517Z,997.30
2022-10-15T02:42:03.168Z,997.31
2022-10-15T02:43:02.939Z,997.26
2022-10-15T02:44:03.162Z,997.28
2022-10-15T02:45:02.969Z,997.25
2022-10-15T02:46:02.757Z,997.22
2022-10-15T02:47:03.137Z,997.23
2022-10-15T02:48:02.839Z,997.17
2022-10-15T02:49:02.737Z,997.17
2022-10-15T02:50:03.217Z,997.26
2022-10-15T02:51:03.097Z,997.31
2022-10-15T02:52:03.532Z,997.28
2022-10-15T02:53:03.340Z,997.32
2022-10-15T02:54:03.139Z,997.35
2022-10-15T02:55:03.640Z,997.33
2022-10-15T02:56:03.177Z,997.32
2022-10-15T02:57:03.641Z,997.25
2022-10-15T02:58:03.184Z,997.27
2022-10-15T02:59:03.661Z,997.27
2022-10-15T03:00:03.187Z,997.23
2022-10-15T03:01:03.804Z,997.21
2022-10-15T03:02:03.082Z,997.24
2022-10-15T03:03:02.722Z,997.19
2022-10-15T03:04:03.149Z,997.16
2022-10-15T03:05:02.654Z,997.14
2022-10-15T03:06:02.522Z,997.19
2022-10-15T03:07:02.055Z,997.19
2022-10-15T03:08:02.521Z,997.19
2022-10-15T03:09:02.121Z,997.20
2022-10-15T03:10:02.635Z,997.18
2022-10-15T03:11:02.400Z,997.21
2022-10-15T03:12:02.913Z,997.23
2022-10-15T03:13:02.392Z,997.30
2022-10-15T03:14:02.831Z,997.24
2022-10-15T03:15:02.361Z,997.26
2022-10-15T03:16:02.863Z,997.28
2022-10-15T03:17:03.052Z,997.28
2022-10-15T03:18:02.717Z,997.29
2022-10-15T03:19:02.733Z,997.24
2022-10-15T03:20:02.511Z,997.30
2022-10-15T03:21:02.969Z,997.30
2022-10-15T03:22:02.579Z,997.23
2022-10-15T03:23:03.046Z,997.28
2022-10-15T03:24:02.820Z,997.26
2022-10-15T03:25:02.948Z,997.27
2022-10-15T03:26:02.729Z,997.29
2022-10-15T03:27:02.255Z,997.22
2022-10-15T03:28:02.720Z,997.10
2022-10-15T03:29:02.459Z,997.13
2022-10-15T03:30:02.207Z,997.16
2022-10-15T03:31:02.303Z,997.20
2022-10-15T03:32:02.714Z,997.22
2022-10-15T03:33:03.104Z,997.21
2022-10-15T03:34:02.902Z,997.20
2022-10-15T03:35:03.371Z,997.20
2022-10-15T03:36:02.905Z,997.16
2022-10-15T03:37:02.446Z,997.17
2022-10-15T03:38:02.905Z,997.15
2022-10-15T03:39:02.690Z,997.20
2022-10-15T03:40:02.467Z,997.22
2022-10-15T03:41:02.845Z,997.21
2022-10-15T03:42:02.702Z,997.23
2022-10-15T03:43:02.557Z,997.22
2022-10-15T03:44:03.024Z,997.26
2022-10-15T03:45:02.783Z,997.25
2022-10-15T03:46:02.548Z,997.26
2022-10-15T03:47:03.034Z,997.27
2022-10-15T03:48:03.507Z,997.26
2022-10-15T03:49:03.139Z,997.33
2022-10-15T03:50:03.503Z,997.34
2022-10-15T03:51:03.427Z,997.33
2022-10-15T03:52:02.218Z,997.36
2022-10-15T03:53:02.698Z,997.35
2022-10-15T03:54:02.701Z,997.34
2022-10-15T03:55:02.594Z,997.36
2022-10-15T03:56:02.366Z,997.32
2022-10-15T03:57:02.833Z,997.32
2022-10-15T03:58:03.282Z,997.29
2022-10-15T03:59:02.808Z,997.30
2022-10-15T04:00:03.259Z,997.27
2022-10-15T04:01:03.321Z,997.31
2022-10-15T04:02:02.926Z,997.26
2022-10-15T04:03:02.893Z,997.26
2022-10-15T04:04:03.416Z,997.26
2022-10-15T04:05:02.935Z,997.28
2022-10-15T04:06:03.526Z,997.27
2022-10-15T04:07:03.058Z,997.26
2022-10-15T04:08:03.550Z,997.29
2022-10-15T04:09:03.090Z,997.32
2022-10-15T04:10:02.926Z,997.41
2022-10-15T04:11:03.418Z,997.49
2022-10-15T04:12:02.450Z,997.50
2022-10-15T04:13:02.233Z,997.47
2022-10-15T04:14:02.702Z,997.40
2022-10-15T04:15:02.662Z,997.41
2022-10-15T04:16:02.123Z,997.38
2022-10-15T04:17:02.656Z,997.35
2022-10-15T04:18:03.047Z,997.34
2022-10-15T04:19:05.102Z,997.32
2022-10-15T04:20:03.008Z,997.32
2022-10-15T04:21:02.558Z,997.33
2022-10-15T04:22:02.733Z,997.29
2022-10-15T04:23:02.294Z,997.29
2022-10-15T04:24:02.090Z,997.28
2022-10-15T04:25:02.656Z,997.21
2022-10-15T04:26:02.268Z,997.28
2022-10-15T04:27:02.897Z,997.29
2022-10-15T04:28:02.677Z,997.33
2022-10-15T04:29:03.294Z,997.31
2022-10-15T04:30:02.796Z,997.28
2022-10-15T04:31:02.968Z,997.31
2022-10-15T04:32:02.512Z,997.28
2022-10-15T04:33:02.281Z,997.27
2022-10-15T04:34:02.479Z,997.26
2022-10-15T04:35:02.253Z,997.26
2022-10-15T04:36:02.788Z,997.18
2022-10-15T04:37:03.068Z,997.09
2022-10-15T04:38:02.940Z,997.10
2022-10-15T04:39:03.367Z,997.08
2022-10-15T04:40:02.985Z,997.04
2022-10-15T04:41:02.872Z,996.99
2022-10-15T04:42:03.392Z,996.99
2022-10-15T04:43:03.185Z,996.96
2022-10-15T04:44:03.456Z,996.92
2022-10-15T04:45:03.270Z,996.96
2022-10-15T04:46:03.045Z,996.94
2022-10-15T04:47:02.605Z,996.89
2022-10-15T04:48:02.245Z,996.96
2022-10-15T04:49:02.715Z,996.95
2022-10-15T04:50:02.485Z,997.05
2022-10-15T04:51:02.244Z,997.04
2022-10-15T04:52:02.703Z,997.10
2022-10-15T04:53:02.532Z,997.10
2022-10-15T04:54:02.333Z,997.13
2022-10-15T04:55:02.612Z,997.19
2022-10-15T04:56:02.507Z,997.22
2022-10-15T04:57:03.026Z,997.27
2022-10-15T04:58:02.879Z,997.34
2022-10-15T04:59:02.687Z,997.40
2022-10-15T05:00:03.178Z,997.32
2022-10-15T05:01:02.657Z,997.40
2022-10-15T05:02:03.156Z,997.38
2022-10-15T05:03:03.049Z,997.40
2022-10-15T05:04:02.927Z,997.46
2022-10-15T05:05:02.744Z,997.44
2022-10-15T05:06:03.375Z,997.42
2022-10-15T05:07:02.696Z,997.40
2022-10-15T05:08:02.574Z,997.39
2022-10-15T05:09:02.452Z,997.40
2022-10-15T05:10:02.301Z,997.37
2022-10-15T05:11:02.768Z,997.36
2022-10-15T05:12:03.139Z,997.35
2022-10-15T05:13:02.998Z,997.31
2022-10-15T05:14:02.867Z,997.33
2022-10-15T05:15:03.319Z,997.31
2022-10-15T05:16:03.314Z,997.31
2022-10-15T05:17:02.902Z,997.23
2022-10-15T05:18:02.687Z,997.28
2022-10-15T05:19:02.476Z,997.27
2022-10-15T05:20:02.815Z,997.29
2022-10-15T05:21:02.585Z,997.27
2022-10-15T05:22:03.075Z,997.31
2022-10-15T05:23:02.988Z,997.38
2022-10-15T05:24:02.974Z,997.43
2022-10-15T05:25:02.871Z,997.36
2022-10-15T05:26:02.754Z,997.40
2022-10-15T05:27:03.438Z,997.44
2022-10-15T05:28:03.236Z,997.40
2022-10-15T05:29:03.338Z,997.47
2022-10-15T05:30:03.070Z,997.43
2022-10-15T05:31:03.568Z,997.45
2022-10-15T05:32:02.865Z,997.42
2022-10-15T05:33:02.669Z,997.48
2022-10-15T05:34:02.319Z,997.51
2022-10-15T05:35:02.636Z,997.43
2022-10-15T05:36:02.448Z,997.49
2022-10-15T05:37:02.938Z,997.47
2022-10-15T05:38:02.751Z,997.42
2022-10-15T05:39:02.571Z,997.52
2022-10-15T05:40:02.409Z,997.54
2022-10-15T05:41:03.023Z,997.53
2022-10-15T05:42:03.284Z,997.58
2022-10-15T05:43:03.098Z,997.60
2022-10-15T05:44:03.276Z,997.55
2022-10-15T05:45:03.218Z,997.59
2022-10-15T05:46:02.947Z,997.57
2022-10-15T05:47:03.333Z,997.58
2022-10-15T05:48:03.603Z,997.63
2022-10-15T05:49:03.358Z,997.64
2022-10-15T05:50:05.168Z,997.68
2022-10-15T05:51:03.231Z,997.63
2022-10-15T05:52:03.665Z,997.67
2022-10-15T05:53:03.484Z,997.66
2022-10-15T05:54:03.168Z,997.63
2022-10-15T05:55:03.744Z,997.65
2022-10-15T05:56:03.196Z,997.60
2022-10-15T05:57:02.754Z,997.61
2022-10-15T05:58:03.286Z,997.68
2022-10-15T05:59:03.092Z,997.66
2022-10-15T06:00:02.885Z,997.72
2022-10-15T06:01:02.984Z,997.63
2022-10-15T06:02:01.914Z,997.60
2022-10-15T06:03:01.863Z,997.54
2022-10-15T06:04:01.842Z,997.53
2022-10-15T06:05:02.333Z,997.51
2022-10-15T06:06:02.202Z,997.45
2022-10-15T06:07:02.018Z,997.46
2022-10-15T06:08:02.638Z,997.48
2022-10-15T06:09:02.239Z,997.50
2022-10-15T06:10:02.110Z,997.53
2022-10-15T06:11:05.333Z,997.55
2022-10-15T06:12:02.275Z,997.58
2022-10-15T06:13:02.917Z,997.61
2022-10-15T06:14:02.433Z,997.57
2022-10-15T06:15:02.328Z,997.53
2022-10-15T06:16:02.276Z,997.54
2022-10-15T06:17:01.888Z,997.56
2022-10-15T06:18:02.434Z,997.62
2022-10-15T06:19:02.078Z,997.60
2022-10-15T06:20:01.962Z,997.55
2022-10-15T06:21:01.848Z,997.54
2022-10-15T06:22:02.369Z,997.52
2022-10-15T06:23:02.447Z,997.54
2022-10-15T06:24:05.115Z,997.58
2022-10-15T06:25:02.345Z,997.56
2022-10-15T06:26:02.338Z,997.56
2022-10-15T06:27:02.009Z,997.57
2022-10-15T06:28:01.938Z,997.59
2022-10-15T06:29:02.260Z,997.62
2022-10-15T06:30:02.250Z,997.59
2022-10-15T06:31:02.257Z,997.59
2022-10-15T06:32:02.222Z,997.58
2022-10-15T06:33:02.077Z,997.59
2022-10-15T06:34:02.722Z,997.64
2022-10-15T06:35:02.469Z,997.64
2022-10-15T06:36:02.354Z,997.68
2022-10-15T06:37:02.261Z,997.70
2022-10-15T06:38:03.268Z,997.77
2022-10-15T06:39:02.240Z,997.74
2022-10-15T06:40:02.250Z,997.72
2022-10-15T06:41:02.219Z,997.74
2022-10-15T06:42:02.388Z,997.79
2022-10-15T06:43:02.736Z,997.76
2022-10-15T06:44:02.713Z,997.82
2022-10-15T06:45:02.547Z,997.84
2022-10-15T06:46:02.529Z,997.85
2022-10-15T06:47:02.439Z,997.85
2022-10-15T06:48:02.465Z,997.89
2022-10-15T06:49:02.402Z,997.88
2022-10-15T06:50:02.415Z,997.85
2022-10-15T06:51:02.407Z,997.90
2022-10-15T06:52:03.611Z,997.91
2022-10-15T06:53:02.492Z,997.88
2022-10-15T06:54:02.183Z,997.94
2022-10-15T06:55:02.077Z,997.92
2022-10-15T06:56:02.026Z,997.93
2022-10-15T06:57:02.146Z,997.92
2022-10-15T06:58:02.026Z,997.92
2022-10-15T06:59:02.033Z,997.92
2022-10-15T07:00:02.038Z,997.91
2022-10-15T07:01:02.051Z,997.90
2022-10-15T07:02:02.757Z,997.97
2022-10-15T07:03:02.698Z,997.90
2022-10-15T07:04:02.633Z,997.92
2022-10-15T07:05:02.643Z,997.92
2022-10-15T07:06:02.558Z,997.93
2022-10-15T07:07:02.225Z,997.94
2022-10-15T07:08:02.237Z,997.97
2022-10-15T07:09:02.193Z,997.94
2022-10-15T07:10:02.162Z,997.98
2022-10-15T07:11:02.375Z,997.99
2022-10-15T07:12:02.293Z,998.02
2022-10-15T07:13:02.270Z,997.97
2022-10-15T07:14:02.635Z,997.93
2022-10-15T07:15:02.461Z,997.95
2022-10-15T07:16:02.442Z,997.94
2022-10-15T07:17:02.426Z,997.97
2022-10-15T07:18:02.141Z,997.94
2022-10-15T07:19:02.390Z,997.97
2022-10-15T07:20:02.299Z,998.04
2022-10-15T07:21:02.545Z,998.02
2022-10-15T07:22:02.977Z,998.08
2022-10-15T07:23:02.999Z,998.10
2022-10-15T07:24:02.890Z,998.08
2022-10-15T07:25:02.881Z,998.06
2022-10-15T07:26:02.900Z,998.08
2022-10-15T07:27:08.070Z,998.06
2022-10-15T07:28:02.367Z,998.09
2022-10-15T07:29:02.324Z,998.10
2022-10-15T07:30:02.314Z,998.12
2022-10-15T07:31:02.296Z,998.10
2022-10-15T07:32:02.873Z,998.11
2022-10-15T07:33:02.871Z,998.13
2022-10-15T07:34:02.794Z,998.09
2022-10-15T07:35:03.125Z,998.05
2022-10-15T07:36:03.222Z,998.04
2022-10-15T07:37:02.989Z,998.00
2022-10-15T07:38:02.995Z,997.98
2022-10-15T07:39:03.007Z,997.95
2022-10-15T07:40:02.966Z,997.93
2022-10-15T07:41:02.985Z,997.96
2022-10-15T07:42:02.305Z,997.94
2022-10-15T07:43:02.460Z,997.98
2022-10-15T07:44:02.389Z,997.97
2022-10-15T07:45:02.402Z,998.00
2022-10-15T07:46:02.373Z,998.01
2022-10-15T07:47:02.927Z,998.02
2022-10-15T07:48:03.048Z,997.99
2022-10-15T07:49:02.639Z,998.01
2022-10-15T07:50:02.597Z,998.02
2022-10-15T07:51:03.280Z,998.00
2022-10-15T07:52:02.722Z,998.02
2022-10-15T07:53:02.704Z,997.99
2022-10-15T07:54:02.924Z,997.95
2022-10-15T07:55:02.583Z,997.99
2022-10-15T07:56:02.542Z,998.02
2022-10-15T07:57:03.149Z,997.99
2022-10-15T07:58:02.739Z,997.94
2022-10-15T07:59:03.011Z,998.00
2022-10-15T08:00:03.053Z,997.95
2022-10-15T08:01:03.096Z,997.95
2022-10-15T08:02:02.823Z,997.95
2022-10-15T08:03:02.817Z,997.96
2022-10-15T08:04:02.878Z,997.91
2022-10-15T08:05:02.760Z,997.94
2022-10-15T08:06:02.755Z,997.93
2022-10-15T08:07:04.006Z,997.83
2022-10-15T08:08:02.614Z,997.90
2022-10-15T08:09:02.328Z,997.79
2022-10-15T08:10:02.233Z,997.80
2022-10-15T08:11:02.142Z,997.81
2022-10-15T08:12:02.786Z,997.83
2022-10-15T08:13:02.750Z,997.83
2022-10-15T08:14:02.692Z,997.78
2022-10-15T08:15:02.636Z,997.84
2022-10-15T08:16:02.526Z,997.80
2022-10-15T08:17:02.914Z,997.76
2022-10-15T08:18:02.842Z,997.76
2022-10-15T08:19:02.680Z,997.77
2022-10-15T08:20:02.826Z,997.75
2022-10-15T08:21:02.698Z,997.75
2022-10-15T08:22:02.639Z,997.68
2022-10-15T08:23:02.241Z,997.68
2022-10-15T08:24:02.042Z,997.64
2022-10-15T08:25:02.619Z,997.61
2022-10-15T08:26:02.176Z,997.63
2022-10-15T08:27:02.694Z,997.62
2022-10-15T08:28:02.535Z,997.69
2022-10-15T08:29:02.539Z,997.70
2022-10-15T08:30:02.341Z,997.66
2022-10-15T08:31:05.226Z,997.62
2022-10-15T08:32:03.344Z,997.64
2022-10-15T08:33:03.051Z,997.64
2022-10-15T08:34:02.872Z,997.72
2022-10-15T08:35:03.390Z,997.64
2022-10-15T08:36:03.091Z,997.59
2022-10-15T08:37:02.891Z,997.61
2022-10-15T08:38:02.691Z,997.57
2022-10-15T08:39:02.799Z,997.64
2022-10-15T08:40:02.348Z,997.65
2022-10-15T08:41:02.265Z,997.64
2022-10-15T08:42:02.901Z,997.64
2022-10-15T08:43:02.505Z,997.60
2022-10-15T08:44:02.413Z,997.61
2022-10-15T08:45:02.297Z,997.61
2022-10-15T08:46:02.945Z,997.58
2022-10-15T08:47:03.087Z,997.58
2022-10-15T08:48:02.993Z,997.54
2022-10-15T08:49:02.905Z,997.55
2022-10-15T08:50:03.663Z,997.61
2022-10-15T08:51:03.321Z,997.60
2022-10-15T08:52:02.353Z,997.62
2022-10-15T08:53:02.928Z,997.62
2022-10-15T08:54:02.806Z,997.62
2022-10-15T08:55:02.796Z,997.59
2022-10-15T08:56:02.785Z,997.61
2022-10-15T08:57:02.764Z,997.53
2022-10-15T08:58:02.786Z,997.56
2022-10-15T08:59:03.400Z,997.56
2022-10-15T09:00:03.143Z,997.65
2022-10-15T09:01:03.223Z,997.59
2022-10-15T09:02:02.218Z,997.62
2022-10-15T09:03:02.862Z,997.66
2022-10-15T09:04:02.557Z,997.66
2022-10-15T09:05:02.519Z,997.62
2022-10-15T09:06:02.427Z,997.61
2022-10-15T09:07:02.754Z,997.62
2022-10-15T09:08:02.704Z,997.61
2022-10-15T09:09:03.221Z,997.57
2022-10-15T09:10:02.707Z,997.61
2022-10-15T09:11:03.281Z,997.60
2022-10-15T09:12:02.985Z,997.64
2022-10-15T09:13:02.993Z,997.60
2022-10-15T09:14:03.576Z,997.55
2022-10-15T09:15:03.292Z,997.53
2022-10-15T09:16:03.307Z,997.58
2022-10-15T09:17:02.252Z,997.59
2022-10-15T09:18:02.779Z,997.65
2022-10-15T09:19:02.515Z,997.62
2022-10-15T09:20:02.487Z,997.64
2022-10-15T09:21:02.480Z,997.61
2022-10-15T09:22:02.557Z,997.59
2022-10-15T09:23:02.568Z,997.55
2022-10-15T09:24:02.490Z,997.55
2022-10-15T09:25:02.806Z,997.63
2022-10-15T09:26:02.758Z,997.63
2022-10-15T09:27:02.821Z,997.57
2022-10-15T09:28:02.883Z,997.60
2022-10-15T09:29:02.779Z,997.63
2022-10-15T09:30:02.775Z,997.58
2022-10-15T09:31:03.187Z,997.58
2022-10-15T09:32:03.076Z,997.54
2022-10-15T09:33:02.994Z,997.55
2022-10-15T09:34:02.956Z,997.54
2022-10-15T09:35:03.600Z,997.53
2022-10-15T09:36:03.388Z,997.53
2022-10-15T09:37:02.419Z,997.58
2022-10-15T09:38:05.893Z,997.50
2022-10-15T09:39:02.415Z,997.49
2022-10-15T09:40:02.299Z,997.53
2022-10-15T09:41:02.995Z,997.58
2022-10-15T09:42:02.653Z,997.49
2022-10-15T09:43:02.849Z,997.52
2022-10-15T09:44:05.697Z,997.55
2022-10-15T09:45:02.942Z,997.49
2022-10-15T09:46:02.975Z,997.50
2022-10-15T09:47:02.937Z,997.48
2022-10-15T09:48:02.956Z,997.47
2022-10-15T09:49:03.269Z,997.44
2022-10-15T09:50:03.324Z,997.42
2022-10-15T09:51:03.167Z,997.46
2022-10-15T09:52:03.170Z,997.43
2022-10-15T09:53:03.037Z,997.49
2022-10-15T09:54:03.129Z,997.46
2022-10-15T09:55:03.207Z,997.44
2022-10-15T09:56:03.108Z,997.46
2022-10-15T09:57:02.891Z,997.48
2022-10-15T09:58:02.948Z,997.43
2022-10-15T09:59:05.916Z,997.43
2022-10-15T10:00:02.912Z,997.40
2022-10-15T10:01:03.049Z,997.36
2022-10-15T10:02:02.102Z,997.39
2022-10-15T10:03:01.884Z,997.38
2022-10-15T10:04:01.748Z,997.42
2022-10-15T10:05:04.258Z,997.44
2022-10-15T10:06:01.994Z,997.39
2022-10-15T10:07:02.734Z,997.37
2022-10-15T10:08:02.729Z,997.32
2022-10-15T10:09:02.745Z,997.22
2022-10-15T10:10:02.757Z,997.28
2022-10-15T10:11:02.672Z,997.27
2022-10-15T10:12:02.311Z,997.28
2022-10-15T10:13:02.361Z,997.28
2022-10-15T10:14:02.311Z,997.31
2022-10-15T10:15:02.310Z,997.26
2022-10-15T10:16:02.267Z,997.36
2022-10-15T10:17:02.849Z,997.35
2022-10-15T10:18:02.808Z,997.33
2022-10-15T10:19:02.852Z,997.29
2022-10-15T10:20:02.604Z,997.29
2022-10-15T10:21:02.597Z,997.38
2022-10-15T10:22:02.291Z,997.29
2022-10-15T10:23:02.037Z,997.26
2022-10-15T10:24:02.129Z,997.24
2022-10-15T10:25:02.115Z,997.31
2022-10-15T10:26:01.946Z,997.27
2022-10-15T10:27:02.621Z,997.26
2022-10-15T10:28:02.590Z,997.25
2022-10-15T10:29:10.011Z,997.26
2022-10-15T10:30:02.463Z,997.18
2022-10-15T10:31:02.500Z,997.19
2022-10-15T10:32:03.138Z,997.18
2022-10-15T10:33:03.094Z,997.19
2022-10-15T10:34:03.141Z,997.17
2022-10-15T10:35:03.207Z,997.21
2022-10-15T10:36:03.243Z,997.20
2022-10-15T10:37:02.337Z,997.16
2022-10-15T10:38:02.375Z,997.13
2022-10-15T10:39:02.425Z,997.12
2022-10-15T10:40:02.503Z,997.17
2022-10-15T10:41:02.276Z,997.13
2022-10-15T10:42:02.997Z,997.11
2022-10-15T10:43:02.955Z,997.13
2022-10-15T10:44:02.955Z,997.17
2022-10-15T10:45:02.939Z,997.12
2022-10-15T10:46:03.035Z,997.06
2022-10-15T10:47:02.742Z,997.05
2022-10-15T10:48:02.788Z,997.09
2022-10-15T10:49:02.756Z,997.04
2022-10-15T10:50:02.716Z,997.12
2022-10-15T10:51:02.697Z,997.04
2022-10-15T10:52:02.485Z,997.06
2022-10-15T10:53:02.536Z,996.92
2022-10-15T10:54:02.209Z,997.02
2022-10-15T10:55:02.281Z,997.00
2022-10-15T10:56:02.016Z,996.94
2022-10-15T10:57:02.779Z,996.92
2022-10-15T10:58:02.887Z,996.97
2022-10-15T10:59:02.685Z,996.97
2022-10-15T11:00:02.698Z,996.95
2022-10-15T11:01:02.725Z,996.92
2022-10-15T11:02:02.421Z,996.92
2022-10-15T11:03:02.115Z,996.89
2022-10-15T11:04:02.420Z,996.91
2022-10-15T11:05:01.830Z,996.95
2022-10-15T11:06:01.836Z,996.90
2022-10-15T11:07:02.885Z,996.86
2022-10-15T11:08:02.678Z,996.88
2022-10-15T11:09:02.279Z,996.90
2022-10-15T11:10:02.829Z,996.91
2022-10-15T11:11:02.768Z,996.86
2022-10-15T11:12:01.629Z,996.88
2022-10-15T11:13:02.332Z,996.89
2022-10-15T11:14:02.005Z,996.90
2022-10-15T11:15:01.912Z,996.86
2022-10-15T11:16:01.712Z,996.86
2022-10-15T11:17:01.649Z,996.92
2022-10-15T11:18:02.244Z,996.87
2022-10-15T11:19:06.281Z,996.85
2022-10-15T11:21:05.983Z,996.85
2022-10-15T11:22:01.895Z,996.77
2022-10-15T11:23:02.544Z,996.85
2022-10-15T11:24:02.248Z,996.83
2022-10-15T11:25:06.985Z,996.84
2022-10-15T11:26:02.052Z,996.85
2022-10-15T11:27:11.236Z,996.84
2022-10-15T11:28:02.183Z,996.84
2022-10-15T11:29:02.059Z,996.78
2022-10-15T11:30:02.070Z,996.80
2022-10-15T11:31:02.085Z,996.81
2022-10-15T11:32:10.418Z,996.81
2022-10-15T11:33:07.554Z,996.82
2022-10-15T11:34:02.768Z,996.80
2022-10-15T11:35:02.780Z,996.78
2022-10-15T11:36:02.548Z,996.72
2022-10-15T11:37:02.667Z,996.74
2022-10-15T11:38:02.396Z,996.60
2022-10-15T11:39:02.248Z,996.73
2022-10-15T11:40:02.240Z,996.74
2022-10-15T11:41:02.235Z,996.72
2022-10-15T11:42:02.213Z,996.68
2022-10-15T11:43:02.196Z,996.67
2022-10-15T11:44:02.062Z,996.65
2022-10-15T11:45:02.016Z,996.68
2022-10-15T11:46:02.013Z,996.65
2022-10-15T11:47:01.913Z,996.68
2022-10-15T11:48:02.590Z,996.67
2022-10-15T11:49:02.565Z,996.61
2022-10-15T11:50:02.377Z,996.66
2022-10-15T11:51:02.819Z,996.64
2022-10-15T11:52:02.802Z,996.62
2022-10-15T11:53:02.751Z,996.60
2022-10-15T11:54:02.901Z,996.63
2022-10-15T11:55:02.893Z,996.63
2022-10-15T11:56:02.763Z,996.57
2022-10-15T11:57:02.730Z,996.55
2022-10-15T11:58:02.365Z,996.64
2022-10-15T11:59:02.238Z,996.67
2022-10-15T12:00:02.732Z,996.60
2022-10-15T12:01:02.425Z,996.63
2022-10-15T12:02:02.354Z,996.63
2022-10-15T12:03:02.053Z,996.61
2022-10-15T12:04:02.071Z,996.63
2022-10-15T12:05:01.999Z,996.59
2022-10-15T12:06:01.935Z,996.54
2022-10-15T12:07:01.865Z,996.55
2022-10-15T12:08:02.350Z,996.50
2022-10-15T12:09:02.397Z,996.48
2022-10-15T12:10:02.219Z,996.47
2022-10-15T12:11:02.592Z,996.47
2022-10-15T12:12:04.381Z,996.47
2022-10-15T12:13:02.080Z,996.42
2022-10-15T12:14:01.877Z,996.52
2022-10-15T12:15:02.317Z,996.45
2022-10-15T12:16:01.858Z,996.42
2022-10-15T12:17:02.405Z,996.46
2022-10-15T12:18:02.760Z,996.43
2022-10-15T12:19:02.626Z,996.41
2022-10-15T12:20:02.604Z,996.45
2022-10-15T12:21:02.530Z,996.49
2022-10-15T12:22:02.428Z,996.48
2022-10-15T12:23:02.142Z,996.42
2022-10-15T12:24:02.123Z,996.43
2022-10-15T12:25:01.959Z,996.45
2022-10-15T12:26:01.961Z,996.38
2022-10-15T12:27:02.293Z,996.46
2022-10-15T12:28:02.647Z,996.45
2022-10-15T12:29:03.197Z,996.43
2022-10-15T12:30:02.276Z,996.39
2022-10-15T12:31:02.732Z,996.39
2022-10-15T12:32:02.594Z,996.38
2022-10-15T12:33:02.216Z,996.36
2022-10-15T12:34:02.135Z,996.34